createdAt,value
2023-02-06T00:01:56.507Z,53.63
2023-02-06T00:04:24.641Z,49.07
2023-02-06T00:06:55.494Z,51.10
2023-02-06T00:09:24.486Z,49.60
2023-02-06T00:11:57.079Z,47.00
2023-02-06T00:14:25.339Z,51.37
2023-02-06T00:16:54.366Z,56.93
2023-02-06T00:19:23.206Z,54.57
2023-02-06T00:21:52.498Z,50.87
2023-02-06T00:24:24.552Z,49.83
2023-02-06T00:26:53.456Z,47.97
2023-02-06T00:29:21.795Z,51.43
2023-02-06T00:31:50.121Z,57.53
2023-02-06T00:34:18.320Z,56.97
2023-02-06T00:36:47.431Z,56.03
2023-02-06T00:39:18.827Z,61.70
2023-02-06T00:41:50.973Z,62.03
2023-02-06T00:44:20.391Z,66.73
2023-02-06T00:46:51.478Z,71.40
2023-02-06T00:49:22.344Z,77.97
2023-02-06T00:51:53.535Z,74.60
2023-02-06T00:54:21.903Z,73.83
2023-02-06T00:56:51.499Z,75.90
2023-02-06T00:59:23.437Z,78.73
2023-02-06T01:01:52.498Z,70.67
2023-02-06T01:04:20.639Z,78.77
2023-02-06T01:06:49.544Z,68.47
2023-02-06T01:09:18.369Z,68.33
2023-02-06T01:11:47.513Z,60.70
2023-02-06T01:14:19.321Z,65.37
2023-02-06T01:16:48.522Z,61.23
2023-02-06T01:19:16.685Z,61.63
2023-02-06T01:21:45.515Z,62.03
2023-02-06T01:24:13.651Z,60.33
2023-02-06T01:26:46.531Z,56.40
2023-02-06T01:29:15.154Z,58.80
2023-02-06T01:31:45.626Z,55.50
2023-02-06T01:34:14.085Z,63.30
2023-02-06T01:36:42.344Z,55.10
2023-02-06T01:39:14.560Z,58.70
2023-02-06T01:41:43.520Z,60.47
2023-02-06T01:44:19.901Z,53.90
2023-02-06T01:46:53.003Z,57.57
2023-02-06T01:49:27.571Z,56.43
2023-02-06T01:52:05.158Z,56.63
2023-02-06T01:54:37.433Z,54.93
2023-02-06T01:57:09.598Z,58.60
2023-02-06T01:59:39.318Z,55.90
2023-02-06T02:02:14.565Z,57.30
2023-02-06T02:04:43.567Z,52.73
2023-02-06T02:07:17.518Z,54.70
2023-02-06T02:09:49.935Z,55.67
2023-02-06T02:12:19.367Z,57.03
2023-02-06T02:14:49.819Z,55.10
2023-02-06T02:17:32.225Z,55.13
2023-02-06T02:20:34.523Z,58.90
2023-02-06T02:23:13.160Z,60.97
2023-02-06T02:26:24.736Z,57.77
2023-02-06T02:29:18.336Z,57.80
2023-02-06T02:32:39.498Z,57.83
2023-02-06T02:35:30.586Z,55.00
2023-02-06T02:38:19.780Z,62.40
2023-02-06T02:40:57.558Z,64.10
2023-02-06T02:43:36.393Z,55.57
2023-02-06T02:46:10.625Z,58.47
2023-02-06T02:48:43.004Z,56.97
2023-02-06T02:51:13.650Z,62.20
2023-02-06T02:53:42.826Z,60.47
2023-02-06T02:56:20.552Z,65.77
2023-02-06T02:58:54.024Z,61.53
2023-02-06T03:01:27.553Z,62.90
2023-02-06T03:04:00.369Z,62.43
2023-02-06T03:07:01.311Z,65.90
2023-02-06T03:09:44.289Z,66.10
2023-02-06T03:12:21.221Z,59.00
2023-02-06T03:14:56.371Z,62.67
2023-02-06T03:17:33.543Z,64.43
2023-02-06T03:20:05.392Z,68.67
2023-02-06T03:22:37.084Z,65.40
2023-02-06T03:25:10.743Z,70.80
2023-02-06T03:27:45.730Z,60.77
2023-02-06T03:30:18.564Z,62.83
2023-02-06T03:32:51.995Z,63.50
2023-02-06T03:35:24.531Z,59.53
2023-02-06T03:37:55.353Z,62.57
2023-02-06T03:40:29.511Z,64.30
2023-02-06T03:43:00.244Z,62.93
2023-02-06T03:45:32.064Z,70.63
2023-02-06T03:48:04.268Z,63.00
2023-02-06T03:50:36.020Z,67.33
2023-02-06T03:53:07.368Z,66.23
2023-02-06T03:55:42.535Z,67.60
2023-02-06T03:58:15.401Z,70.50
2023-02-06T04:00:49.186Z,69.63
2023-02-06T04:03:20.057Z,69.57
2023-02-06T04:05:52.136Z,73.03
2023-02-06T04:08:21.636Z,64.13
2023-02-06T04:10:50.607Z,67.40
2023-02-06T04:13:18.818Z,69.03
2023-02-06T04:15:47.528Z,68.00
2023-02-06T04:18:20.134Z,66.43
2023-02-06T04:20:48.580Z,65.67
2023-02-06T04:23:16.724Z,79.47
2023-02-06T04:25:46.583Z,64.87
2023-02-06T04:28:15.102Z,75.30
2023-02-06T04:30:43.726Z,71.60
2023-02-06T04:33:15.374Z,67.97
2023-02-06T04:35:45.185Z,68.77
2023-02-06T04:38:13.551Z,70.63
2023-02-06T04:40:42.267Z,68.03
2023-02-06T04:43:11.788Z,82.43
2023-02-06T04:45:43.568Z,77.17
2023-02-06T04:48:11.836Z,79.47
2023-02-06T04:50:40.556Z,74.60
2023-02-06T04:53:09.380Z,85.87
2023-02-06T04:55:37.888Z,82.53
2023-02-06T04:58:06.246Z,82.90
2023-02-06T05:00:37.973Z,78.17
2023-02-06T05:03:07.149Z,83.60
2023-02-06T05:05:35.752Z,81.67
2023-02-06T05:08:04.012Z,75.43
2023-02-06T05:10:32.556Z,69.93
2023-02-06T05:13:00.766Z,73.70
2023-02-06T05:15:29.527Z,70.70
2023-02-06T05:17:59.975Z,71.30
2023-02-06T05:20:30.376Z,74.70
2023-02-06T05:22:58.552Z,77.25
2023-02-06T05:25:26.783Z,72.33
2023-02-06T05:27:55.295Z,71.73
2023-02-06T05:30:24.550Z,66.87
2023-02-06T05:32:52.871Z,71.57
2023-02-06T05:35:25.100Z,62.20
2023-02-06T05:37:53.300Z,65.07
2023-02-06T05:40:23.269Z,72.53
2023-02-06T05:42:52.622Z,72.07
2023-02-06T05:45:20.747Z,76.77
2023-02-06T05:47:53.782Z,84.43
2023-02-06T05:50:22.416Z,67.63
2023-02-06T05:52:51.908Z,69.77
2023-02-06T05:55:23.070Z,64.00
2023-02-06T05:57:51.244Z,82.50
2023-02-06T06:00:19.891Z,81.30
2023-02-06T06:02:48.053Z,74.47
2023-02-06T06:05:17.616Z,79.77
2023-02-06T06:07:45.883Z,73.63
2023-02-06T06:10:16.075Z,76.17
2023-02-06T06:12:47.526Z,77.37
2023-02-06T06:15:16.599Z,77.47
2023-02-06T06:17:44.747Z,78.63
2023-02-06T06:20:13.343Z,76.37
2023-02-06T06:22:41.746Z,81.50
2023-02-06T06:25:10.007Z,83.00
2023-02-06T06:27:42.054Z,76.97
2023-02-06T06:30:11.797Z,80.07
2023-02-06T06:32:40.051Z,72.50
2023-02-06T06:35:09.093Z,71.73
2023-02-06T06:37:37.293Z,66.50
2023-02-06T06:40:08.420Z,70.57
2023-02-06T06:42:37.097Z,69.60
2023-02-06T06:45:08.426Z,75.03
2023-02-06T06:47:36.570Z,68.23
2023-02-06T06:50:05.132Z,76.27
2023-02-06T06:52:33.358Z,70.13
2023-02-06T06:55:05.553Z,76.87
2023-02-06T06:57:34.240Z,72.27
2023-02-06T07:00:02.456Z,73.63
2023-02-06T07:02:36.286Z,74.93
2023-02-06T07:05:04.717Z,75.97
2023-02-06T07:07:33.651Z,70.47
2023-02-06T07:10:02.027Z,70.57
2023-02-06T07:12:30.594Z,72.37
2023-02-06T07:14:59.416Z,80.27
2023-02-06T07:17:27.659Z,76.40
2023-02-06T07:20:01.332Z,72.50
2023-02-06T07:22:29.640Z,63.67
2023-02-06T07:24:57.926Z,74.77
2023-02-06T07:27:26.256Z,64.77
2023-02-06T07:29:54.405Z,66.37
2023-02-06T07:32:22.741Z,65.77
2023-02-06T07:34:50.992Z,72.17
2023-02-06T07:37:21.568Z,73.13
2023-02-06T07:39:49.675Z,70.83
2023-02-06T07:42:18.909Z,65.40
2023-02-06T07:44:56.313Z,69.93
2023-02-06T07:47:25.600Z,64.63
2023-02-06T07:49:54.438Z,63.23
2023-02-06T07:52:24.194Z,72.13
2023-02-06T07:54:55.353Z,69.00
2023-02-06T07:57:25.595Z,63.37
2023-02-06T07:59:54.588Z,69.17
2023-02-06T08:02:22.871Z,67.60
2023-02-06T08:04:51.010Z,78.07
2023-02-06T08:07:20.605Z,70.77
2023-02-06T08:09:50.145Z,74.40
2023-02-06T08:12:19.418Z,67.80
2023-02-06T08:14:47.730Z,63.60
2023-02-06T08:17:17.483Z,67.87
2023-02-06T08:19:47.419Z,61.67
2023-02-06T08:22:16.592Z,62.70
2023-02-06T08:24:47.399Z,54.60
2023-02-06T08:27:17.602Z,55.27
2023-02-06T08:29:45.827Z,53.87
2023-02-06T08:32:14.584Z,57.17
2023-02-06T08:34:42.819Z,63.30
2023-02-06T08:37:13.759Z,48.03
2023-02-06T08:39:42.590Z,49.10
2023-02-06T08:42:11.066Z,44.57
2023-02-06T08:44:41.703Z,51.97
2023-02-06T08:47:10.773Z,50.30
2023-02-06T08:49:41.725Z,52.33
2023-02-06T08:52:09.902Z,50.53
2023-02-06T08:54:39.041Z,52.87
2023-02-06T08:57:07.754Z,54.85
2023-02-06T08:59:35.918Z,51.30
2023-02-06T09:02:08.257Z,50.07
2023-02-06T09:04:38.448Z,51.57
2023-02-06T09:07:07.012Z,51.33
2023-02-06T09:09:35.603Z,52.93
2023-02-06T09:12:04.115Z,53.57
2023-02-06T09:14:33.028Z,49.83
2023-02-06T09:17:03.432Z,54.87
2023-02-06T09:19:32.975Z,57.33
2023-02-06T09:22:01.597Z,49.47
2023-02-06T09:24:32.302Z,47.27
2023-02-06T09:27:01.158Z,44.17
2023-02-06T09:29:33.476Z,44.30
2023-02-06T09:32:02.624Z,39.20
2023-02-06T09:34:32.195Z,46.77
2023-02-06T09:37:03.618Z,41.63
2023-02-06T09:39:35.252Z,40.33
2023-02-06T09:42:08.599Z,43.03
2023-02-06T09:44:42.602Z,44.83
2023-02-06T09:47:25.420Z,42.97
2023-02-06T09:49:58.488Z,38.43
2023-02-06T09:52:46.635Z,38.27
2023-02-06T09:55:23.380Z,43.50
2023-02-06T09:58:03.637Z,40.37
2023-02-06T10:00:41.574Z,43.07
2023-02-06T10:03:33.694Z,36.50
2023-02-06T10:06:16.576Z,36.63
2023-02-06T10:08:54.554Z,37.27
2023-02-06T10:11:32.215Z,38.67
2023-02-06T10:14:06.566Z,36.70
2023-02-06T10:16:44.159Z,36.73
2023-02-06T10:19:18.831Z,40.47
2023-02-06T10:21:54.670Z,36.53
2023-02-06T10:24:33.576Z,29.10
2023-02-06T10:27:05.642Z,32.57
2023-02-06T10:29:36.486Z,34.97
2023-02-06T10:32:27.085Z,32.07
2023-02-06T10:35:17.566Z,37.40
2023-02-06T10:38:04.986Z,38.90
2023-02-06T10:40:42.630Z,35.53
2023-02-06T10:43:18.985Z,39.90
2023-02-06T10:45:53.619Z,36.40
2023-02-06T10:48:29.361Z,35.00
2023-02-06T10:51:05.720Z,33.80
2023-02-06T10:53:38.549Z,32.13
2023-02-06T10:56:10.760Z,30.07
2023-02-06T10:58:42.221Z,33.70
2023-02-06T11:01:25.485Z,36.77
2023-02-06T11:03:59.956Z,34.00
2023-02-06T11:06:31.073Z,28.40
2023-02-06T11:09:00.708Z,29.57
2023-02-06T11:11:31.018Z,27.57
2023-02-06T11:14:05.477Z,29.53
2023-02-06T11:16:38.228Z,27.97
2023-02-06T11:19:17.531Z,29.23
2023-02-06T11:21:54.984Z,30.30
2023-02-06T11:24:26.236Z,30.40
2023-02-06T11:26:59.651Z,32.73
2023-02-06T11:29:31.838Z,27.57
2023-02-06T11:32:03.641Z,21.93
2023-02-06T11:34:34.132Z,22.13
2023-02-06T11:37:04.638Z,22.13
2023-02-06T11:39:35.887Z,22.40
2023-02-06T11:42:07.659Z,24.23
2023-02-06T11:44:44.133Z,28.83
2023-02-06T11:47:33.338Z,28.67
2023-02-06T11:50:24.702Z,27.43
2023-02-06T11:53:01.548Z,29.30
2023-02-06T11:55:34.383Z,32.50
2023-02-06T11:58:07.702Z,34.47
2023-02-06T12:00:38.249Z,29.83
2023-02-06T12:03:08.180Z,33.87
2023-02-06T12:05:43.670Z,33.60
2023-02-06T12:08:15.730Z,29.57
2023-02-06T12:10:58.653Z,30.10
2023-02-06T12:13:31.257Z,30.23
2023-02-06T12:16:03.648Z,35.40
2023-02-06T12:18:38.005Z,31.37
2023-02-06T12:21:13.664Z,33.10
2023-02-06T12:23:45.655Z,32.90
2023-02-06T12:26:19.531Z,32.17
2023-02-06T12:28:57.672Z,34.27
2023-02-06T12:31:32.761Z,33.10
2023-02-06T12:34:12.527Z,36.47
2023-02-06T12:36:53.493Z,36.93
2023-02-06T12:39:24.548Z,32.90
2023-02-06T12:42:20.672Z,34.93
2023-02-06T12:44:55.699Z,35.37
2023-02-06T12:47:30.712Z,34.57
2023-02-06T12:50:05.684Z,32.67
2023-02-06T12:52:40.691Z,30.13
2023-02-06T12:55:17.734Z,33.47
2023-02-06T12:57:49.519Z,35.60
2023-02-06T13:00:56.067Z,35.83
2023-02-06T13:03:33.984Z,31.87
2023-02-06T13:06:12.342Z,34.20
2023-02-06T13:08:45.189Z,34.80
2023-02-06T13:11:28.618Z,38.20
2023-02-06T13:14:05.648Z,37.57
2023-02-06T13:16:59.682Z,33.53
2023-02-06T13:19:33.768Z,35.30
2023-02-06T13:22:45.134Z,38.10
2023-02-06T13:25:49.805Z,44.00
2023-02-06T13:29:05.694Z,35.17
2023-02-06T13:31:35.894Z,32.77
2023-02-06T13:34:18.246Z,35.63
2023-02-06T13:36:57.545Z,36.63
2023-02-06T13:39:29.476Z,37.20
2023-02-06T13:42:06.778Z,37.43
2023-02-06T13:44:37.626Z,35.03
2023-02-06T13:47:47.722Z,33.73
2023-02-06T13:50:46.718Z,38.30
2023-02-06T13:53:33.594Z,38.87
2023-02-06T13:56:15.677Z,35.30
2023-02-06T13:58:49.516Z,38.93
2023-02-06T14:01:22.894Z,39.43
2023-02-06T14:03:54.565Z,42.73
2023-02-06T14:07:01.521Z,38.00
2023-02-06T14:09:44.068Z,39.90
2023-02-06T14:12:35.391Z,37.00
2023-02-06T14:15:20.684Z,39.00
2023-02-06T14:18:08.982Z,40.60
2023-02-06T14:20:50.672Z,34.83
2023-02-06T14:23:34.518Z,35.13
2023-02-06T14:26:23.670Z,36.13
2023-02-06T14:29:02.235Z,44.03
2023-02-06T14:31:47.440Z,50.23
2023-02-06T14:34:37.561Z,52.17
2023-02-06T14:37:28.631Z,53.87
2023-02-06T14:40:04.796Z,59.77
2023-02-06T14:42:36.953Z,65.93
2023-02-06T14:45:11.905Z,61.87
2023-02-06T14:47:42.710Z,70.20
2023-02-06T14:50:20.785Z,69.50
2023-02-06T14:52:54.648Z,65.93
2023-02-06T14:55:31.556Z,71.60
2023-02-06T14:58:00.729Z,72.77
2023-02-06T15:00:29.744Z,83.50
2023-02-06T15:03:15.095Z,90.53
2023-02-06T15:05:43.882Z,87.27
2023-02-06T15:08:19.949Z,86.27
2023-02-06T15:11:01.462Z,86.53
2023-02-06T15:13:35.019Z,99.53
2023-02-06T15:16:05.527Z,96.53
2023-02-06T15:18:36.025Z,102.20
2023-02-06T15:21:08.646Z,105.43
2023-02-06T15:23:54.638Z,102.87
2023-02-06T15:26:43.264Z,110.73
2023-02-06T15:29:20.504Z,99.77
2023-02-06T15:31:49.816Z,104.07
2023-02-06T15:34:19.456Z,105.80
2023-02-06T15:36:47.719Z,106.07
2023-02-06T15:39:18.945Z,105.87
2023-02-06T15:41:52.205Z,104.87
2023-02-06T15:44:28.643Z,109.80
2023-02-06T15:46:59.759Z,100.13
2023-02-06T15:49:40.264Z,101.40
2023-02-06T15:52:08.928Z,104.00
2023-02-06T15:54:42.657Z,112.67
2023-02-06T15:57:27.755Z,113.80
2023-02-06T15:59:56.892Z,112.60
2023-02-06T16:02:31.500Z,116.80
2023-02-06T16:05:00.113Z,123.83
2023-02-06T16:07:31.845Z,118.13
2023-02-06T16:10:06.121Z,130.40
2023-02-06T16:12:37.408Z,135.23
2023-02-06T16:15:26.465Z,125.03
2023-02-06T16:17:55.580Z,120.27
2023-02-06T16:20:33.209Z,134.27
2023-02-06T16:23:24.301Z,131.57
2023-02-06T16:26:04.355Z,124.37
2023-02-06T16:28:32.661Z,129.07
2023-02-06T16:31:04.458Z,128.90
2023-02-06T16:33:40.367Z,128.60
2023-02-06T16:36:11.515Z,129.83
2023-02-06T16:38:39.792Z,121.37
2023-02-06T16:44:01.832Z,129.17
2023-02-06T16:46:30.756Z,121.97
2023-02-06T16:49:00.649Z,121.67
2023-02-06T16:51:33.184Z,130.63
2023-02-06T16:54:01.477Z,128.93
2023-02-06T16:56:29.683Z,121.30
2023-02-06T16:58:57.959Z,125.67
2023-02-06T17:01:29.615Z,125.77
2023-02-06T17:03:59.498Z,127.77
2023-02-06T17:06:29.883Z,125.27
2023-02-06T17:09:09.106Z,121.90
2023-02-06T17:11:39.680Z,128.23
2023-02-06T17:14:07.992Z,119.30
2023-02-06T17:16:40.843Z,121.27
2023-02-06T17:19:09.046Z,122.33
2023-02-06T17:21:38.198Z,123.43
2023-02-06T17:24:07.320Z,119.50
2023-02-06T17:26:36.438Z,112.07
2023-02-06T17:29:05.295Z,113.97
2023-02-06T17:31:33.600Z,121.97
2023-02-06T17:34:03.205Z,113.67
2023-02-06T17:36:33.161Z,121.93
2023-02-06T17:39:02.153Z,111.13
2023-02-06T17:41:31.358Z,108.90
2023-02-06T17:44:00.264Z,107.97
2023-02-06T17:46:31.488Z,103.30
2023-02-06T17:48:59.665Z,100.83
2023-02-06T17:51:29.424Z,109.47
2023-02-06T17:53:57.649Z,99.50
2023-02-06T17:56:27.445Z,98.20
2023-02-06T17:58:55.605Z,105.03
2023-02-06T18:01:25.531Z,99.97
2023-02-06T18:03:53.961Z,102.63
2023-02-06T18:06:23.435Z,95.20
2023-02-06T18:08:53.087Z,93.37
2023-02-06T18:11:25.447Z,96.43
2023-02-06T18:13:53.805Z,104.30
2023-02-06T18:16:24.196Z,94.67
2023-02-06T18:18:52.704Z,98.30
2023-02-06T18:21:24.523Z,98.37
2023-02-06T18:23:57.254Z,105.90
2023-02-06T18:26:27.326Z,100.40
2023-02-06T18:28:56.290Z,98.20
2023-02-06T18:31:27.506Z,98.80
2023-02-06T18:33:56.444Z,103.37
2023-02-06T18:36:25.332Z,98.93
2023-02-06T18:38:54.293Z,98.73
2023-02-06T18:41:41.736Z,102.17
2023-02-06T18:44:11.436Z,94.30
2023-02-06T18:46:40.311Z,91.43
2023-02-06T18:49:08.606Z,90.53
2023-02-06T18:51:36.769Z,78.97
2023-02-06T18:54:05.488Z,88.40
2023-02-06T18:56:35.726Z,78.73
2023-02-06T18:59:08.027Z,81.17
2023-02-06T19:01:36.291Z,77.67
2023-02-06T19:04:04.695Z,80.00
2023-02-06T19:06:36.564Z,75.13
2023-02-06T19:09:07.131Z,69.13
2023-02-06T19:11:37.815Z,69.00
2023-02-06T19:14:07.562Z,70.13
2023-02-06T19:16:40.369Z,73.23
2023-02-06T19:19:08.748Z,69.23
2023-02-06T19:21:37.407Z,67.17
2023-02-06T19:24:06.463Z,72.27
2023-02-06T19:26:36.227Z,75.23
2023-02-06T19:29:04.500Z,71.97
2023-02-06T19:31:39.144Z,70.20
2023-02-06T19:34:08.196Z,73.67
2023-02-06T19:36:36.736Z,81.37
2023-02-06T19:39:07.357Z,89.77
2023-02-06T19:41:37.354Z,83.30
2023-02-06T19:44:08.034Z,85.03
2023-02-06T19:46:36.569Z,80.47
2023-02-06T19:49:08.608Z,82.33
2023-02-06T19:51:41.632Z,80.43
2023-02-06T19:54:09.994Z,74.60
2023-02-06T19:56:42.704Z,79.93
2023-02-06T19:59:18.212Z,77.93
2023-02-06T20:01:46.909Z,70.87
2023-02-06T20:04:15.461Z,74.07
2023-02-06T20:06:44.945Z,67.10
2023-02-06T20:09:14.698Z,70.50
2023-02-06T20:11:44.942Z,65.63
2023-02-06T20:14:13.503Z,62.87
2023-02-06T20:16:43.506Z,69.93
2023-02-06T20:19:14.297Z,60.37
2023-02-06T20:21:47.568Z,58.80
2023-02-06T20:24:18.650Z,63.53
2023-02-06T20:26:56.097Z,63.40
2023-02-06T20:29:27.679Z,62.03
2023-02-06T20:31:57.057Z,64.33
2023-02-06T20:34:28.802Z,62.83
2023-02-06T20:36:58.076Z,64.50
2023-02-06T20:39:28.743Z,66.20
2023-02-06T20:41:58.392Z,63.63
2023-02-06T20:44:29.783Z,66.83
2023-02-06T20:46:58.534Z,64.17
2023-02-06T20:49:28.890Z,60.37
2023-02-06T20:51:57.453Z,60.20
2023-02-06T20:54:26.240Z,59.73
2023-02-06T20:56:57.575Z,66.33
2023-02-06T20:59:27.293Z,61.87
2023-02-06T21:01:56.701Z,62.47
2023-02-06T21:04:25.697Z,62.03
2023-02-06T21:06:54.131Z,67.47
2023-02-06T21:09:22.243Z,64.43
2023-02-06T21:11:54.111Z,70.87
2023-02-06T21:14:22.485Z,64.50
2023-02-06T21:16:52.337Z,56.93
2023-02-06T21:19:22.365Z,60.90
2023-02-06T21:21:53.458Z,59.77
2023-02-06T21:24:22.649Z,71.47
2023-02-06T21:26:50.928Z,62.93
2023-02-06T21:29:19.120Z,62.63
2023-02-06T21:31:48.553Z,66.60
2023-02-06T21:34:21.351Z,62.37
2023-02-06T21:36:51.198Z,63.87
2023-02-06T21:39:22.348Z,70.40
2023-02-06T21:41:53.727Z,74.83
2023-02-06T21:44:26.531Z,61.63
2023-02-06T21:46:56.168Z,60.73
2023-02-06T21:49:27.349Z,62.90
2023-02-06T21:51:59.601Z,71.27
2023-02-06T21:54:29.339Z,66.33
2023-02-06T21:56:58.748Z,68.17
2023-02-06T21:59:26.923Z,62.57
2023-02-06T22:01:55.583Z,61.50
2023-02-06T22:04:25.331Z,67.43
2023-02-06T22:06:54.210Z,62.70
2023-02-06T22:09:23.013Z,64.80
2023-02-06T22:11:51.534Z,66.10
2023-02-06T22:14:20.035Z,60.50
2023-02-06T22:16:48.534Z,69.33
2023-02-06T22:19:20.672Z,64.50
2023-02-06T22:21:50.599Z,67.67
2023-02-06T22:24:19.334Z,66.23
2023-02-06T22:26:48.713Z,67.83
2023-02-06T22:29:20.288Z,63.67
2023-02-06T22:31:50.103Z,58.97
2023-02-06T22:34:21.565Z,62.77
2023-02-06T22:36:52.074Z,60.53
2023-02-06T22:39:23.643Z,59.73
2023-02-06T22:41:52.119Z,58.17
2023-02-06T22:44:21.732Z,63.33
2023-02-06T22:46:52.550Z,63.43
2023-02-06T22:49:27.604Z,53.47
2023-02-06T22:51:57.956Z,57.33
2023-02-06T22:54:26.376Z,58.73
2023-02-06T22:56:54.624Z,60.10
2023-02-06T22:59:27.105Z,71.03
2023-02-06T23:01:57.750Z,67.80
2023-02-06T23:04:32.358Z,61.13
2023-02-06T23:07:02.904Z,56.90
2023-02-06T23:09:34.351Z,64.97
2023-02-06T23:12:03.109Z,71.43
2023-02-06T23:14:32.629Z,63.13
2023-02-06T23:17:03.996Z,66.93
2023-02-06T23:19:32.515Z,67.90
2023-02-06T23:22:03.527Z,71.37
2023-02-06T23:24:31.933Z,69.17
2023-02-06T23:27:00.540Z,71.50
2023-02-06T23:29:29.533Z,70.83
2023-02-06T23:31:59.581Z,72.80
2023-02-06T23:34:28.488Z,73.90
2023-02-06T23:36:57.502Z,75.80
2023-02-06T23:39:27.378Z,73.30
2023-02-06T23:41:57.404Z,74.63
2023-02-06T23:44:25.903Z,81.30
2023-02-06T23:46:54.616Z,74.77
2023-02-06T23:49:23.574Z,70.50
2023-02-06T23:51:53.494Z,73.47
2023-02-06T23:54:21.625Z,75.47
2023-02-06T23:56:56.634Z,71.93
2023-02-06T23:59:24.790Z,71.27
